Time;durP1;ratioP1;P1;durP2;ratioP2;P2;SDS_P1;SDS_P2;PMS_P1;PMS_P2;Temp;Humidity;BMP_temperature;BMP_pressure;BME280_temperature;BME280_humidity;BME280_pressure;Samples;Min_cycle;Max_cycle;Signal;HPM_P1;HPM_P2
2023/09/09 00:00:36;;;;;;;7.37;4.82;;;;;;;26.48;38.08;100085.06;4483278;32;33692;-66
2023/09/09 00:03:04;;;;;;;7.47;4.57;;;;;;;26.47;38.09;100085.31;4483982;32;34750;-66
2023/09/09 00:05:33;;;;;;;7.32;4.82;;;;;;;26.47;38.07;100090.78;4484076;32;33908;-66
2023/09/09 00:08:00;;;;;;;8.05;4.18;;;;;;;26.45;38.10;100082.84;4484058;32;33808;-65
2023/09/09 00:10:29;;;;;;;7.47;4.72;;;;;;;26.44;38.10;100087.47;4482668;32;32909;-66
2023/09/09 00:12:57;;;;;;;7.37;4.68;;;;;;;26.44;38.05;100082.00;4484021;32;33828;-65
2023/09/09 00:15:25;;;;;;;7.87;4.57;;;;;;;26.44;38.07;100086.66;4484043;32;33737;-66
2023/09/09 00:17:54;;;;;;;8.40;4.60;;;;;;;26.43;38.10;100083.06;4483886;32;33618;-66
2023/09/09 00:20:35;;;;;;;8.45;4.70;;;;;;;26.43;38.07;100079.50;4483935;32;33101;-66
2023/09/09 00:23:07;;;;;;;9.45;4.32;;;;;;;26.43;38.11;100074.00;4479171;32;33870;-65
2023/09/09 00:25:36;;;;;;;7.97;4.22;;;;;;;26.40;38.18;100078.06;4468966;32;33170;-66
2023/09/09 00:28:04;;;;;;;10.68;4.40;;;;;;;26.40;38.25;100080.78;4483557;32;33749;-66
2023/09/09 00:30:32;;;;;;;14.60;4.78;;;;;;;26.40;38.18;100074.50;4483679;32;33483;-66
2023/09/09 00:32:59;;;;;;;11.73;4.90;;;;;;;26.39;38.25;100081.00;4482296;32;33899;-66
2023/09/09 00:35:27;;;;;;;8.73;5.55;;;;;;;26.39;38.26;100083.75;4483819;32;34432;-66
2023/09/09 00:37:55;;;;;;;6.45;4.43;;;;;;;26.40;38.24;100082.69;4483698;32;33952;-65
2023/09/09 00:40:22;;;;;;;8.00;4.78;;;;;;;26.38;38.27;100080.19;4469669;32;33410;-65
2023/09/09 00:42:50;;;;;;;7.40;4.60;;;;;;;26.38;38.28;100080.19;4483683;32;34664;-66
2023/09/09 00:45:19;;;;;;;7.77;4.80;;;;;;;26.36;38.33;100082.34;4483348;32;33904;-65
2023/09/09 00:47:47;;;;;;;7.30;4.50;;;;;;;26.37;38.31;100084.00;4483308;32;34186;-65
2023/09/09 00:50:15;;;;;;;7.22;4.32;;;;;;;26.38;38.30;100082.09;4484018;32;33779;-67
2023/09/09 00:52:43;;;;;;;8.18;4.97;;;;;;;26.35;38.30;100077.09;4483510;32;34510;-65
2023/09/09 00:55:11;;;;;;;9.70;5.25;;;;;;;26.36;38.30;100076.03;4483539;32;33774;-65
2023/09/09 00:57:39;;;;;;;6.47;4.82;;;;;;;26.35;38.31;100083.41;4483521;32;34137;-65
2023/09/09 01:00:10;;;;;;;7.87;4.82;;;;;;;26.35;38.28;100075.19;4483338;32;33555;-65
2023/09/09 01:02:41;;;;;;;6.15;4.10;;;;;;;26.35;38.31;100082.59;4483764;32;34713;-66
2023/09/09 01:05:09;;;;;;;7.12;4.47;;;;;;;26.33;38.30;100080.06;4483241;32;33513;-66
2023/09/09 01:07:46;;;;;;;7.37;4.87;;;;;;;26.34;38.25;100080.87;4483381;32;34157;-65
2023/09/09 01:10:16;;;;;;;7.68;5.22;;;;;;;26.34;38.24;100078.16;4483361;32;33330;-66
2023/09/09 01:12:43;;;;;;;8.27;5.23;;;;;;;26.34;38.28;100080.87;4484260;32;34432;-66
2023/09/09 01:15:11;;;;;;;7.25;4.82;;;;;;;26.33;38.20;100079.22;4483998;32;34808;-65
2023/09/09 01:17:40;;;;;;;8.38;5.50;;;;;;;26.33;38.23;100073.75;4485275;32;33839;-66
2023/09/09 01:20:14;;;;;;;7.65;4.60;;;;;;;26.33;38.20;100071.03;4484230;32;33010;-67
2023/09/09 01:22:43;;;;;;;7.30;4.57;;;;;;;26.32;38.25;100072.94;4485114;32;33863;-66
2023/09/09 01:25:11;;;;;;;6.78;4.55;;;;;;;26.32;38.24;100061.16;4483701;32;34722;-66
2023/09/09 01:27:39;;;;;;;7.12;4.20;;;;;;;26.31;38.23;100074.00;4485228;32;33583;-65
2023/09/09 01:30:08;;;;;;;7.57;4.93;;;;;;;26.32;38.20;100070.19;4483978;32;33388;-67
2023/09/09 01:32:36;;;;;;;7.70;4.97;;;;;;;26.31;38.20;100070.44;4485235;32;34164;-66
2023/09/09 01:35:04;;;;;;;7.75;4.68;;;;;;;26.30;38.21;100072.34;4485259;32;34056;-66
2023/09/09 01:37:32;;;;;;;7.68;4.70;;;;;;;26.30;38.20;100064.16;4483885;32;34842;-66
2023/09/09 01:40:07;;;;;;;6.90;4.37;;;;;;;26.30;38.18;100068.75;4483635;32;34505;-66
2023/09/09 01:42:40;;;;;;;8.70;4.25;;;;;;;26.29;38.17;100067.94;4485091;32;33907;-65
2023/09/09 01:45:08;;;;;;;9.63;4.68;;;;;;;26.30;38.16;100074.22;4485298;32;33906;-66
2023/09/09 01:47:35;;;;;;;6.53;4.32;;;;;;;26.29;38.12;100062.47;4484849;32;34635;-65
2023/09/09 01:50:03;;;;;;;8.90;5.05;;;;;;;26.28;38.14;100059.97;4485066;32;34186;-65
2023/09/09 01:52:31;;;;;;;7.97;4.43;;;;;;;26.27;38.13;100069.25;4484980;32;33864;-65
2023/09/09 01:54:59;;;;;;;8.15;4.55;;;;;;;26.26;38.15;100067.59;4485242;32;34036;-65
2023/09/09 01:57:27;;;;;;;7.93;4.70;;;;;;;26.26;38.16;100062.97;4484995;32;34568;-65
2023/09/09 01:59:56;;;;;;;7.18;4.37;;;;;;;26.26;38.20;100067.59;4483683;32;34334;-66
2023/09/09 02:02:24;;;;;;;9.30;4.70;;;;;;;26.26;38.18;100056.66;4485122;32;33984;-66
2023/09/09 02:04:51;;;;;;;8.38;4.75;;;;;;;26.25;38.19;100061.28;4484794;32;34155;-65
2023/09/09 02:07:19;;;;;;;9.23;4.87;;;;;;;26.24;38.25;100065.09;4484978;32;34495;-65
2023/09/09 02:09:47;;;;;;;6.82;3.85;;;;;;;26.24;38.19;100067.00;4485246;32;34010;-66
2023/09/09 02:12:15;;;;;;;18.62;4.40;;;;;;;26.23;38.24;100068.06;4485018;32;34773;-65
2023/09/09 02:14:42;;;;;;;8.25;4.60;;;;;;;26.23;38.27;100070.81;4483461;32;34707;-65
2023/09/09 02:17:11;;;;;;;6.95;4.32;;;;;;;26.22;38.24;100067.25;4484895;32;34827;-64
2023/09/09 02:19:39;;;;;;;6.62;4.45;;;;;;;26.21;38.22;100060.09;4484906;32;33069;-65
2023/09/09 02:22:06;;;;;;;10.27;5.03;;;;;;;26.20;38.16;100064.72;4484605;32;33841;-64
2023/09/09 02:24:34;;;;;;;7.22;4.45;;;;;;;26.20;38.19;100061.97;4483983;32;33668;-64
2023/09/09 02:27:03;;;;;;;8.00;4.80;;;;;;;26.20;38.18;100061.97;4484659;32;34297;-65
2023/09/09 02:29:30;;;;;;;8.77;4.75;;;;;;;26.20;38.22;100067.47;4484581;32;33575;-65
2023/09/09 02:31:58;;;;;;;8.63;4.85;;;;;;;26.19;38.17;100057.59;4484678;32;34038;-65
2023/09/09 02:34:26;;;;;;;8.45;5.32;;;;;;;26.18;38.17;100072.34;4484703;32;34810;-66
2023/09/09 02:37:17;;;;;;;6.45;4.60;;;;;;;26.19;38.16;100059.50;4484845;32;34237;-65
2023/09/09 02:39:45;;;;;;;6.87;4.15;;;;;;;26.19;38.17;100054.03;4484635;32;33232;-65
2023/09/09 02:42:15;;;;;;;8.57;4.85;;;;;;;26.16;38.22;100058.09;4484554;32;34145;-64
2023/09/09 02:44:42;;;;;;;7.55;4.80;;;;;;;26.14;38.21;100057.47;4484663;32;33705;-65
2023/09/09 02:47:12;;;;;;;8.63;4.50;;;;;;;26.16;38.13;100049.03;4483486;32;34639;-64
2023/09/09 02:49:40;;;;;;;7.90;4.75;;;;;;;26.16;38.16;100055.34;4483278;32;33284;-66
2023/09/09 02:52:07;;;;;;;8.02;4.25;;;;;;;26.16;38.16;100059.97;4483251;32;33935;-65
2023/09/09 02:54:36;;;;;;;7.97;4.65;;;;;;;26.16;38.14;100057.22;4484568;32;34059;-65
2023/09/09 02:57:04;;;;;;;6.70;4.30;;;;;;;26.14;38.17;100060.22;4470537;32;33612;-64
2023/09/09 02:59:35;;;;;;;7.62;4.70;;;;;;;26.14;38.14;100057.47;4483559;32;34880;-64
2023/09/09 03:02:05;;;;;;;6.57;4.18;;;;;;;26.14;38.18;100054.75;4483402;32;34587;-64
2023/09/09 03:04:32;;;;;;;6.62;3.97;;;;;;;26.13;38.21;100050.34;4484461;32;33552;-64
2023/09/09 03:07:00;;;;;;;5.97;4.00;;;;;;;26.13;38.21;100053.09;4484591;32;33839;-65
2023/09/09 03:09:29;;;;;;;8.63;3.87;;;;;;;26.14;38.23;100049.28;4484277;32;34352;-65
2023/09/09 03:11:57;;;;;;;5.90;4.15;;;;;;;26.13;38.21;100046.78;4484513;32;34360;-66
2023/09/09 03:14:25;;;;;;;7.45;4.25;;;;;;;26.12;38.19;100045.13;4484410;32;34142;-64
2023/09/09 03:16:53;;;;;;;7.15;4.65;;;;;;;26.12;38.18;100043.22;4484454;32;34103;-65
2023/09/09 03:19:20;;;;;;;6.00;3.95;;;;;;;26.11;38.20;100040.72;4470470;32;32373;-64
2023/09/09 03:21:48;;;;;;;7.75;4.62;;;;;;;26.11;38.20;100044.31;4484315;32;33998;-66
2023/09/09 03:24:16;;;;;;;6.57;4.43;;;;;;;26.10;38.18;100039.88;4484270;32;33678;-65
2023/09/09 03:26:43;;;;;;;6.50;4.28;;;;;;;26.10;38.23;100036.31;4484393;32;33864;-66
2023/09/09 03:29:11;;;;;;;7.15;4.60;;;;;;;26.11;38.24;100032.50;4484380;32;33089;-64
2023/09/09 03:31:39;;;;;;;7.95;4.37;;;;;;;26.11;38.23;100044.31;4484449;32;33953;-65
2023/09/09 03:34:06;;;;;;;7.70;4.50;;;;;;;26.10;38.18;100034.41;4483182;32;33891;-65
2023/09/09 03:36:36;;;;;;;6.60;4.20;;;;;;;26.09;38.19;100038.22;4484226;32;34297;-65
2023/09/09 03:39:04;;;;;;;6.97;3.90;;;;;;;26.10;38.18;100033.59;4484182;32;33400;-65
2023/09/09 03:41:32;;;;;;;7.47;4.10;;;;;;;26.09;38.21;100040.13;4484431;32;34776;-66
2023/09/09 03:44:00;;;;;;;6.22;4.20;;;;;;;26.09;38.21;100031.94;4484542;32;33995;-65
2023/09/09 03:46:28;;;;;;;6.70;4.37;;;;;;;26.08;38.24;100036.56;4482742;32;34290;-65
2023/09/09 03:48:56;;;;;;;8.13;4.37;;;;;;;26.08;38.21;100028.38;4484139;32;33255;-65
2023/09/09 03:51:24;;;;;;;9.10;4.85;;;;;;;26.07;38.24;100045.84;4484423;32;34092;-65
2023/09/09 03:53:52;;;;;;;9.75;4.50;;;;;;;26.07;38.23;100034.91;4484342;32;33771;-65
2023/09/09 03:56:19;;;;;;;7.82;4.70;;;;;;;26.06;38.25;100035.97;4484511;32;33387;-65
2023/09/09 03:58:47;;;;;;;6.25;4.22;;;;;;;26.06;38.19;100041.41;4483176;32;33354;-65
2023/09/09 04:01:15;;;;;;;7.60;4.03;;;;;;;26.05;38.22;100037.03;4484420;32;33708;-65
2023/09/09 04:03:43;;;;;;;7.35;4.45;;;;;;;26.06;38.23;100035.12;4484078;32;34700;-65
2023/09/09 04:06:12;;;;;;;9.05;4.97;;;;;;;26.04;38.22;100037.28;4484080;32;33934;-65
2023/09/09 04:08:40;;;;;;;9.00;4.25;;;;;;;26.04;38.24;100040.00;4484116;32;33639;-65
2023/09/09 04:11:08;;;;;;;6.18;4.15;;;;;;;26.03;38.26;100041.91;4484417;32;34677;-65
2023/09/09 04:13:40;;;;;;;7.87;4.37;;;;;;;26.03;38.26;100050.13;4483873;32;33890;-65
2023/09/09 04:16:09;;;;;;;7.65;4.35;;;;;;;26.02;38.25;100045.72;4484241;32;33478;-65
2023/09/09 04:18:36;;;;;;;6.32;4.30;;;;;;;26.02;38.20;100047.59;4484000;32;33962;-64
2023/09/09 04:21:13;;;;;;;7.30;4.53;;;;;;;26.02;38.21;100051.19;4484105;32;33721;-64
2023/09/09 04:23:41;;;;;;;7.45;4.47;;;;;;;26.03;38.22;100055.59;4483969;32;33896;-64
2023/09/09 04:26:09;;;;;;;6.75;4.15;;;;;;;26.02;38.25;100055.81;4482568;32;34087;-64
2023/09/09 04:28:37;;;;;;;9.48;4.62;;;;;;;26.02;38.28;100058.53;4483896;32;32806;-64
2023/09/09 04:31:04;;;;;;;6.10;4.12;;;;;;;26.01;38.30;100057.72;4484106;32;34540;-64
2023/09/09 04:33:32;;;;;;;8.35;4.30;;;;;;;26.01;38.29;100052.25;4484093;32;34099;-64
2023/09/09 04:36:00;;;;;;;9.02;5.12;;;;;;;26.01;38.29;100048.69;4483872;32;33872;-64
2023/09/09 04:38:28;;;;;;;7.78;4.62;;;;;;;26.01;38.33;100054.16;4483793;32;34377;-64
2023/09/09 04:40:55;;;;;;;6.72;4.03;;;;;;;26.00;38.31;100047.03;4483976;32;34684;-65
2023/09/09 04:43:23;;;;;;;6.15;3.97;;;;;;;26.00;38.32;100052.50;4483701;32;33622;-64
2023/09/09 04:45:51;;;;;;;7.03;4.30;;;;;;;25.99;38.36;100056.31;4482466;32;33917;-65
2023/09/09 04:48:19;;;;;;;8.90;4.60;;;;;;;26.00;38.32;100058.78;4467190;32;34082;-65
2023/09/09 04:50:48;;;;;;;7.60;4.28;;;;;;;25.98;38.32;100055.47;4468255;32;34895;-65
2023/09/09 04:53:15;;;;;;;8.52;4.45;;;;;;;25.99;38.34;100061.78;4467867;32;34009;-66
2023/09/09 04:55:43;;;;;;;7.47;4.60;;;;;;;25.98;38.37;100060.13;4467955;32;34014;-66
2023/09/09 04:58:11;;;;;;;7.90;3.75;;;;;;;25.98;38.38;100060.13;4467892;32;34278;-65
2023/09/09 05:00:40;;;;;;;6.95;4.30;;;;;;;25.97;38.41;100067.47;4467842;32;34791;-66
2023/09/09 05:03:07;;;;;;;7.03;4.03;;;;;;;25.97;38.42;100062.00;4453620;32;34692;-65
2023/09/09 05:05:35;;;;;;;6.80;4.62;;;;;;;25.97;38.40;100070.19;4467684;32;33407;-66
2023/09/09 05:08:03;;;;;;;6.12;3.87;;;;;;;25.96;38.43;100076.72;4468049;32;33249;-66
2023/09/09 05:10:33;;;;;;;9.52;4.80;;;;;;;25.95;38.46;100070.44;4467942;31;33934;-66
2023/09/09 05:13:03;;;;;;;;;;;;;;;25.95;38.50;100069.59;4480788;32;33174;-64
2023/09/09 05:15:31;;;;;;;8.75;4.60;;;;;;;26.06;38.41;100062.47;4483072;32;34344;-65
2023/09/09 05:17:58;;;;;;;6.10;4.15;;;;;;;25.99;38.54;100084.47;4482321;32;33387;-65
2023/09/09 05:20:27;;;;;;;7.35;4.40;;;;;;;25.97;38.65;100081.13;4482568;32;34043;-65
2023/09/09 05:23:03;;;;;;;7.82;4.57;;;;;;;25.95;38.76;100072.34;4482465;32;33810;-66
2023/09/09 05:25:58;;;;;;;6.15;4.20;;;;;;;25.94;38.81;100081.63;4482242;32;34592;-65
2023/09/09 05:28:28;;;;;;;9.38;4.60;;;;;;;25.95;38.78;100078.63;4482213;32;33145;-66
2023/09/09 05:30:57;;;;;;;7.45;4.43;;;;;;;25.94;38.87;100079.72;4482624;32;34357;-66
2023/09/09 05:33:25;;;;;;;7.28;4.75;;;;;;;25.96;38.90;100082.19;4479739;31;33905;-64
2023/09/09 05:35:53;;;;;;;7.43;4.65;;;;;;;25.95;38.95;100081.37;4481182;32;33793;-64
2023/09/09 05:38:21;;;;;;;9.48;5.25;;;;;;;25.95;39.01;100084.09;4482163;32;33257;-65
2023/09/09 05:40:48;;;;;;;7.82;5.45;;;;;;;25.95;39.08;100081.37;4482439;32;33443;-65
2023/09/09 05:43:16;;;;;;;8.00;4.85;;;;;;;25.97;39.16;100080.31;4482444;32;34069;-64
2023/09/09 05:45:44;;;;;;;9.60;4.90;;;;;;;25.98;39.21;100092.94;4482343;32;34674;-64
2023/09/09 05:48:12;;;;;;;7.07;4.22;;;;;;;25.98;39.29;100082.81;4475951;32;33016;-65
2023/09/09 05:50:40;;;;;;;6.85;4.40;;;;;;;25.97;39.33;100075.66;4472448;32;33962;-65
2023/09/09 05:53:07;;;;;;;7.55;5.00;;;;;;;25.98;39.38;100079.25;4481742;32;33457;-64
2023/09/09 05:55:35;;;;;;;7.50;4.75;;;;;;;25.98;39.42;100077.34;4481857;32;33593;-64
2023/09/09 05:58:04;;;;;;;6.82;4.80;;;;;;;25.99;39.46;100083.66;4471476;32;33196;-66
2023/09/09 06:00:32;;;;;;;6.95;4.72;;;;;;;26.00;39.50;100090.78;4482949;32;34739;-65
2023/09/09 06:02:59;;;;;;;10.23;4.90;;;;;;;25.99;39.52;100084.47;4483233;32;34853;-66
2023/09/09 06:05:27;;;;;;;7.65;4.28;;;;;;;26.00;39.55;100088.88;4484283;32;34191;-66
2023/09/09 06:07:56;;;;;;;7.43;4.47;;;;;;;26.00;39.55;100085.31;4483059;32;34149;-65
2023/09/09 06:10:25;;;;;;;7.47;5.12;;;;;;;26.00;39.59;100091.59;4484161;32;33935;-66
2023/09/09 06:12:52;;;;;;;7.93;4.60;;;;;;;26.02;39.58;100091.34;4484200;32;33908;-65
2023/09/09 06:15:20;;;;;;;9.07;4.87;;;;;;;26.02;39.57;100086.75;4484279;32;33373;-66
2023/09/09 06:17:49;;;;;;;7.10;4.82;;;;;;;26.04;39.58;100083.75;4484197;32;33408;-66
2023/09/09 06:20:17;;;;;;;7.40;4.87;;;;;;;26.03;39.58;100088.41;4483921;32;33879;-66
2023/09/09 06:22:45;;;;;;;7.12;4.57;;;;;;;26.06;39.56;100092.56;4484158;32;33999;-66
2023/09/09 06:25:13;;;;;;;8.45;4.70;;;;;;;26.06;39.57;100084.34;4484222;32;33563;-66
2023/09/09 06:27:41;;;;;;;7.50;4.70;;;;;;;26.08;39.62;100088.53;4483118;32;33343;-65
2023/09/09 06:30:08;;;;;;;7.30;4.75;;;;;;;26.08;39.59;100095.91;4484299;32;33865;-65
2023/09/09 06:32:36;;;;;;;8.98;5.00;;;;;;;26.07;39.62;100095.06;4484026;32;33925;-66
2023/09/09 06:35:05;;;;;;;6.55;4.47;;;;;;;26.09;39.64;100092.09;4483144;32;34732;-66
2023/09/09 06:37:33;;;;;;;6.72;4.18;;;;;;;26.09;39.62;100100.28;4484244;32;34276;-65
2023/09/09 06:40:05;;;;;;;7.93;4.45;;;;;;;26.10;39.62;100097.31;4483903;32;34750;-65
2023/09/09 06:42:33;;;;;;;7.32;4.78;;;;;;;26.10;39.76;100093.75;4483701;32;34992;-65
2023/09/09 06:45:00;;;;;;;12.95;4.50;;;;;;;26.10;39.87;100101.94;4483984;32;33384;-65
2023/09/09 06:47:28;;;;;;;8.25;4.50;;;;;;;26.11;39.88;100109.06;4483452;32;34223;-65
2023/09/09 06:49:56;;;;;;;6.87;4.30;;;;;;;26.11;39.92;100103.59;4484087;32;33512;-65
2023/09/09 06:52:23;;;;;;;9.18;4.45;;;;;;;26.12;39.93;100100.66;4483981;32;33902;-66
2023/09/09 06:54:51;;;;;;;6.78;4.25;;;;;;;26.12;39.95;100106.13;4483941;32;34582;-65
2023/09/09 06:57:19;;;;;;;7.70;5.00;;;;;;;26.13;39.97;100116.00;4484101;32;34142;-65
2023/09/09 06:59:46;;;;;;;7.97;4.72;;;;;;;26.14;39.99;100117.66;4483855;32;33643;-65
2023/09/09 07:02:14;;;;;;;9.57;4.60;;;;;;;26.16;40.06;100115.53;4483693;32;33867;-65
2023/09/09 07:04:42;;;;;;;11.07;4.85;;;;;;;26.16;40.11;100120.12;4482628;32;34612;-65
2023/09/09 07:07:10;;;;;;;7.35;4.60;;;;;;;26.17;40.16;100122.66;4482484;32;34219;-65
2023/09/09 07:09:49;;;;;;;8.25;4.93;;;;;;;26.17;40.02;100119.91;4482478;32;34746;-65
2023/09/09 07:12:16;;;;;;;8.20;5.43;;;;;;;26.17;39.97;100119.91;4483633;32;33869;-65
2023/09/09 07:14:44;;;;;;;9.75;4.72;;;;;;;26.17;40.01;100122.66;4482449;32;33747;-65
2023/09/09 07:17:12;;;;;;;7.18;4.50;;;;;;;26.17;40.06;100122.66;4483996;32;33068;-66
2023/09/09 07:19:39;;;;;;;11.48;5.03;;;;;;;26.17;40.04;100119.91;4483653;32;33426;-65
2023/09/09 07:22:07;;;;;;;8.77;4.37;;;;;;;26.17;40.19;100124.56;4483463;32;34806;-66
2023/09/09 07:24:35;;;;;;;7.78;4.70;;;;;;;26.17;40.31;100122.66;4483927;32;34790;-65
2023/09/09 07:27:03;;;;;;;9.85;5.12;;;;;;;26.17;40.40;100121.81;4484058;32;33510;-66
2023/09/09 07:29:32;;;;;;;7.45;4.32;;;;;;;26.16;40.41;100121.00;4469786;32;34368;-64
2023/09/09 07:32:02;;;;;;;9.00;4.45;;;;;;;26.19;40.47;100127.88;4483433;32;33566;-66
2023/09/09 07:34:30;;;;;;;8.68;5.12;;;;;;;26.19;40.54;100127.88;4484419;32;33749;-65
2023/09/09 07:36:57;;;;;;;15.00;4.90;;;;;;;26.19;40.51;100128.72;4483945;32;34065;-65
2023/09/09 07:39:28;;;;;;;14.30;4.82;;;;;;;26.20;40.53;100135.00;4484211;32;33886;-65
2023/09/09 07:41:56;;;;;;;7.07;4.65;;;;;;;26.19;40.57;100136.91;4484024;32;34037;-67
2023/09/09 07:44:23;;;;;;;12.68;5.22;;;;;;;26.20;40.52;100132.28;4483141;31;33543;-67
2023/09/09 07:46:51;;;;;;;8.88;4.72;;;;;;;26.20;40.50;100129.53;4483937;32;33082;-66
2023/09/09 07:49:21;;;;;;;10.40;5.20;;;;;;;26.20;40.50;100133.09;4483836;32;34247;-66
2023/09/09 07:51:49;;;;;;;11.80;4.87;;;;;;;26.20;40.58;100127.63;4480577;32;33626;-66
2023/09/09 07:54:17;;;;;;;10.32;4.70;;;;;;;26.21;40.62;100133.97;4498308;31;33891;-66
2023/09/09 07:56:46;;;;;;;8.77;4.62;;;;;;;26.22;40.60;100130.16;4499080;31;33367;-66
2023/09/09 07:59:13;;;;;;;9.00;5.25;;;;;;;26.24;40.57;100135.37;4499411;31;34668;-66
2023/09/09 08:01:42;;;;;;;9.63;5.60;;;;;;;26.24;40.47;100128.00;4500254;31;33673;-67
2023/09/09 08:04:10;;;;;;;9.63;5.40;;;;;;;26.24;40.54;100127.16;4498678;31;32711;-66
2023/09/09 08:06:38;;;;;;;9.88;5.05;;;;;;;26.25;40.48;100131.56;4499820;31;33683;-67
2023/09/09 08:09:06;;;;;;;9.02;5.22;;;;;;;26.27;40.56;100121.22;4500102;31;33940;-66
2023/09/09 08:11:34;;;;;;;9.73;5.47;;;;;;;26.28;40.55;100126.44;4499668;31;34744;-65
2023/09/09 08:14:01;;;;;;;12.20;5.47;;;;;;;26.29;40.51;100124.53;4499352;31;34012;-66
2023/09/09 08:16:30;;;;;;;9.25;4.95;;;;;;;26.31;40.36;100138.84;4478528;31;33377;-66
2023/09/09 08:19:00;;;;;;;11.02;5.30;;;;;;;26.32;40.32;100130.38;4483178;32;33830;-65
2023/09/09 08:21:28;;;;;;;8.07;5.03;;;;;;;26.32;40.53;100132.28;4482239;32;33562;-65
2023/09/09 08:24:01;;;;;;;12.05;5.30;;;;;;;26.34;40.60;100139.16;4483446;32;33670;-67
2023/09/09 08:26:29;;;;;;;10.40;5.20;;;;;;;26.36;40.69;100128.00;4483184;32;34066;-66
2023/09/09 08:28:57;;;;;;;11.63;5.18;;;;;;;26.37;40.67;100125.03;4483457;32;34683;-66
2023/09/09 08:31:24;;;;;;;10.68;5.10;;;;;;;26.38;40.76;100125.84;4483763;32;34609;-67
2023/09/09 08:33:52;;;;;;;6.93;4.87;;;;;;;26.39;40.87;100133.00;4483396;32;33515;-66
2023/09/09 08:36:20;;;;;;;8.68;5.55;;;;;;;26.41;40.79;100125.37;4483449;32;33437;-66
2023/09/09 08:38:47;;;;;;;10.02;5.05;;;;;;;26.44;40.74;100130.44;4483059;32;33455;-66
2023/09/09 08:41:59;;;;;;;10.32;5.75;;;;;;;26.46;40.73;100125.53;4483336;32;33627;-66
2023/09/09 08:45:21;;;;;;;8.52;4.60;;;;;;;26.50;40.70;100120.44;4483391;32;34307;-67
2023/09/09 08:47:49;;;;;;;7.82;5.10;;;;;;;26.50;40.60;100118.53;4418224;32;33228;-67
2023/09/09 08:50:16;;;;;;;8.70;5.40;;;;;;;26.48;40.70;100125.28;4463516;32;34273;-66
2023/09/09 08:52:44;;;;;;;9.30;4.93;;;;;;;26.48;40.59;100120.66;4481935;32;34304;-67
2023/09/09 08:55:12;;;;;;;8.60;4.80;;;;;;;26.48;40.43;100120.66;4468788;32;34415;-66
2023/09/09 08:57:39;;;;;;;10.98;5.18;;;;;;;26.50;40.49;100124.00;4481758;32;33249;-66
2023/09/09 09:00:07;;;;;;;10.07;5.12;;;;;;;26.53;40.40;100128.13;4481930;32;34047;-66
2023/09/09 09:02:35;;;;;;;8.38;4.55;;;;;;;26.53;40.40;100126.22;4481820;32;34038;-67
2023/09/09 09:05:03;;;;;;;8.32;4.45;;;;;;;26.54;40.42;100127.91;4481512;32;34094;-67
2023/09/09 09:07:32;;;;;;;9.00;5.00;;;;;;;26.54;40.39;100127.91;4481439;32;33682;-67
2023/09/09 09:10:00;;;;;;;10.52;4.90;;;;;;;26.56;40.35;100125.75;4463506;32;33986;-67
2023/09/09 09:12:30;;;;;;;9.40;4.90;;;;;;;26.56;40.43;100117.53;4465459;32;34740;-66
2023/09/09 09:14:58;;;;;;;8.27;4.65;;;;;;;26.57;40.42;100119.22;4453249;32;33986;-65
2023/09/09 09:17:26;;;;;;;12.02;4.90;;;;;;;26.57;40.54;100124.69;4467329;32;33278;-67
2023/09/09 09:19:53;;;;;;;7.55;5.03;;;;;;;26.57;40.43;100121.94;4452787;32;33075;-65
2023/09/09 09:22:21;;;;;;;8.55;5.45;;;;;;;26.58;40.42;100125.50;4467289;32;33717;-66
2023/09/09 09:24:49;;;;;;;10.15;5.03;;;;;;;26.59;40.44;100119.00;4452845;32;33685;-65
2023/09/09 09:27:16;;;;;;;10.20;5.20;;;;;;;26.59;40.56;100122.56;4465783;32;33301;-65
2023/09/09 09:29:48;;;;;;;11.15;5.07;;;;;;;26.60;40.48;100107.78;4466836;32;33486;-66
2023/09/09 09:32:16;;;;;;;7.18;5.20;;;;;;;26.59;40.39;100111.59;4465667;32;34021;-66
2023/09/09 09:34:44;;;;;;;8.13;4.87;;;;;;;26.62;40.52;100111.09;4468751;32;34749;-67
2023/09/09 09:37:12;;;;;;;9.82;4.65;;;;;;;26.62;40.52;100111.09;4469087;32;33612;-67
2023/09/09 09:39:40;;;;;;;8.32;5.57;;;;;;;26.64;40.45;100110.88;4442263;32;32936;-65
2023/09/09 09:42:10;;;;;;;8.32;5.20;;;;;;;26.65;40.24;100118.03;4467976;32;33994;-65
2023/09/09 09:44:37;;;;;;;8.10;4.97;;;;;;;26.64;40.36;100106.25;4468623;32;33941;-65
2023/09/09 09:47:07;;;;;;;7.15;4.22;;;;;;;26.63;40.24;100112.78;4467540;32;33136;-66
2023/09/09 09:49:41;;;;;;;8.05;5.43;;;;;;;26.67;40.04;100110.38;4454672;32;33908;-67
2023/09/09 09:52:09;;;;;;;8.77;5.07;;;;;;;26.67;40.07;100107.66;4454784;32;32859;-67
2023/09/09 09:54:37;;;;;;;7.35;4.28;;;;;;;26.68;40.10;100110.16;4468491;32;34662;-66
2023/09/09 09:57:05;;;;;;;9.02;4.75;;;;;;;26.70;40.21;100110.75;4468929;32;34432;-66
2023/09/09 09:59:34;;;;;;;7.72;4.90;;;;;;;26.69;40.35;100113.72;4467570;32;33464;-66
2023/09/09 10:02:03;;;;;;;7.55;4.93;;;;;;;26.67;40.41;100111.25;4468667;32;33886;-66
2023/09/09 10:04:38;;;;;;;7.68;4.95;;;;;;;26.69;40.31;100105.53;4467423;32;34602;-66
2023/09/09 10:07:12;;;;;;;7.87;4.93;;;;;;;26.69;40.24;100100.88;4468796;32;33512;-66
2023/09/09 10:09:55;;;;;;;7.95;4.93;;;;;;;26.68;40.26;100103.84;4470230;32;33654;-67
2023/09/09 10:12:37;;;;;;;7.47;4.87;;;;;;;26.67;40.20;100100.28;4484343;32;34417;-67
2023/09/09 10:15:15;;;;;;;6.78;4.62;;;;;;;26.68;40.02;100110.16;4471262;32;33727;-66
2023/09/09 10:17:43;;;;;;;7.75;4.87;;;;;;;26.71;39.76;100104.19;4470332;32;33315;-65
2023/09/09 10:20:11;;;;;;;8.50;4.60;;;;;;;26.71;39.42;100106.94;4482995;32;34828;-67
2023/09/09 10:22:40;;;;;;;7.53;4.78;;;;;;;26.73;39.49;100114.09;4470088;32;33888;-65
2023/09/09 10:25:12;;;;;;;8.65;4.75;;;;;;;26.71;39.63;100106.09;4482927;32;34067;-66
2023/09/09 10:27:40;;;;;;;8.00;5.00;;;;;;;26.73;39.28;100108.63;4470501;32;33561;-66
2023/09/09 10:30:08;;;;;;;9.85;5.05;;;;;;;26.76;39.34;100102.63;4483083;32;34008;-67
2023/09/09 10:32:36;;;;;;;6.55;4.40;;;;;;;26.75;39.33;100103.72;4469860;32;33729;-65
2023/09/09 10:35:07;;;;;;;9.60;4.65;;;;;;;26.73;39.41;100100.41;4484522;32;33376;-67
2023/09/09 10:37:36;;;;;;;7.18;4.35;;;;;;;26.77;39.05;100096.12;4482708;32;32989;-65
2023/09/09 10:40:05;;;;;;;6.97;4.40;;;;;;;26.77;38.78;100087.91;4484053;32;33998;-64
2023/09/09 10:42:36;;;;;;;7.30;4.25;;;;;;;26.77;39.01;100093.38;4470171;32;34422;-64
2023/09/09 10:45:22;;;;;;;9.63;4.20;;;;;;;26.77;38.98;100096.12;4482290;32;33819;-66
2023/09/09 10:48:10;;;;;;;8.65;4.45;;;;;;;26.81;38.98;100087.13;4469626;32;32285;-67
2023/09/09 10:50:51;;;;;;;7.15;4.30;;;;;;;26.82;39.14;100088.00;4482633;32;33746;-65
2023/09/09 10:53:21;;;;;;;8.40;5.35;;;;;;;26.81;39.20;100086.31;4484130;32;34872;-66
2023/09/09 10:55:55;;;;;;;9.13;4.40;;;;;;;26.77;39.34;100083.25;4484015;32;33734;-66
2023/09/09 10:58:33;;;;;;;8.98;4.85;;;;;;;26.78;39.23;100084.09;4482963;32;33325;-66
2023/09/09 11:01:01;;;;;;;8.38;4.90;;;;;;;26.78;39.32;100076.69;4483489;32;33849;-66
2023/09/09 11:03:37;;;;;;;7.12;4.22;;;;;;;26.79;39.25;100077.53;4483943;32;34582;-66
2023/09/09 11:06:10;;;;;;;7.35;4.03;;;;;;;26.79;39.11;100072.06;4456753;32;32691;-66
2023/09/09 11:08:41;;;;;;;7.45;5.18;;;;;;;26.77;39.00;100079.69;4482476;32;33922;-67
2023/09/09 11:11:11;;;;;;;9.30;4.53;;;;;;;26.78;39.07;100078.59;4483772;32;34230;-66
2023/09/09 11:13:38;;;;;;;;;;;;;;;26.81;38.59;100070.72;4482901;32;33891;-66
2023/09/09 11:16:06;;;;;;;6.85;4.53;;;;;;;26.90;38.54;100068.44;4482882;32;34140;-67
2023/09/09 11:18:34;;;;;;;8.02;4.57;;;;;;;26.84;38.81;100066.69;4482751;32;34052;-67
2023/09/09 11:21:03;;;;;;;7.37;4.83;;;;;;;26.81;39.07;100070.72;4469813;32;33796;-65
2023/09/09 11:23:31;;;;;;;7.40;4.70;;;;;;;26.82;38.61;100068.84;4469772;32;34413;-66
2023/09/09 11:25:59;;;;;;;7.65;4.40;;;;;;;26.79;38.62;100064.66;4482778;32;33817;-66
2023/09/09 11:28:27;;;;;;;8.20;4.65;;;;;;;26.80;38.19;100063.59;4482426;32;34122;-66
2023/09/09 11:30:54;;;;;;;7.00;4.32;;;;;;;26.82;37.38;100066.09;4482139;32;34239;-66
2023/09/09 11:33:25;;;;;;;8.23;4.80;;;;;;;26.82;37.40;100060.63;4482036;32;33998;-65